createdAt,value
2023-10-23T00:02:26.660Z,8.73
2023-10-23T00:04:54.762Z,8.93
2023-10-23T00:07:24.292Z,8.98
2023-10-23T00:09:52.409Z,8.48
2023-10-23T00:12:20.427Z,9.00
2023-10-23T00:14:48.515Z,8.38
2023-10-23T00:17:16.854Z,8.13
2023-10-23T00:19:44.874Z,7.80
2023-10-23T00:22:12.962Z,8.23
2023-10-23T00:24:42.536Z,8.07
2023-10-23T00:27:10.676Z,8.05
2023-10-23T00:29:38.728Z,8.77
2023-10-23T00:32:07.709Z,8.02
2023-10-23T00:34:35.888Z,7.85
2023-10-23T00:37:04.041Z,8.10
2023-10-23T00:39:34.314Z,8.15
2023-10-23T00:42:03.907Z,7.88
2023-10-23T00:44:32.459Z,7.82
2023-10-23T00:47:00.975Z,8.15
2023-10-23T00:49:29.195Z,8.57
2023-10-23T00:51:57.884Z,7.90
2023-10-23T00:54:26.787Z,8.05
2023-10-23T00:56:55.228Z,7.55
2023-10-23T00:59:24.822Z,7.18
2023-10-23T01:01:53.394Z,8.60
2023-10-23T01:04:22.066Z,8.52
2023-10-23T01:06:51.356Z,8.30
2023-10-23T01:09:19.553Z,7.88
2023-10-23T01:11:47.673Z,8.05
2023-10-23T01:14:15.765Z,7.28
2023-10-23T01:16:45.186Z,7.55
2023-10-23T01:19:13.255Z,7.43
2023-10-23T01:21:41.351Z,8.77
2023-10-23T01:24:11.590Z,7.82
2023-10-23T01:26:41.058Z,9.18
2023-10-23T01:29:09.098Z,8.73
2023-10-23T01:31:37.163Z,9.50
2023-10-23T01:34:08.596Z,9.98
2023-10-23T01:36:36.972Z,10.63
2023-10-23T01:39:05.536Z,10.60
2023-10-23T01:41:33.895Z,10.75
2023-10-23T01:44:03.544Z,11.15
2023-10-23T01:46:31.822Z,10.77
2023-10-23T01:48:59.868Z,10.27
2023-10-23T01:51:28.959Z,11.02
2023-10-23T01:53:57.251Z,11.88
2023-10-23T01:56:25.737Z,12.13
2023-10-23T01:58:53.811Z,11.48
2023-10-23T02:01:24.769Z,10.18
2023-10-23T02:03:52.292Z,10.88
2023-10-23T02:06:20.415Z,10.23
2023-10-23T02:08:48.703Z,10.27
2023-10-23T02:11:18.823Z,9.10
2023-10-23T02:13:46.888Z,9.30
2023-10-23T02:16:15.043Z,7.70
2023-10-23T02:18:43.689Z,8.18
2023-10-23T02:21:11.919Z,8.43
2023-10-23T02:23:53.228Z,7.90
2023-10-23T02:26:24.340Z,8.95
2023-10-23T02:28:52.451Z,8.70
2023-10-23T02:31:20.861Z,8.48
2023-10-23T02:33:50.482Z,8.32
2023-10-23T02:36:18.694Z,8.45
2023-10-23T02:38:46.992Z,7.88
2023-10-23T02:41:15.080Z,8.38
2023-10-23T02:43:43.152Z,8.73
2023-10-23T02:46:11.445Z,9.68
2023-10-23T02:48:42.010Z,8.13
2023-10-23T02:51:11.565Z,8.45
2023-10-23T02:53:40.391Z,9.15
2023-10-23T02:56:15.447Z,8.67
2023-10-23T02:58:43.523Z,8.65
2023-10-23T03:01:19.084Z,9.45
2023-10-23T03:03:47.657Z,8.57
2023-10-23T03:06:17.319Z,8.85
2023-10-23T03:08:45.658Z,9.48
2023-10-23T03:11:13.958Z,8.23
2023-10-23T03:13:42.044Z,9.18
2023-10-23T03:16:10.354Z,8.88
2023-10-23T03:18:38.618Z,8.07
2023-10-23T03:21:06.809Z,9.02
2023-10-23T03:23:37.089Z,8.77
2023-10-23T03:26:05.569Z,8.35
2023-10-23T03:28:33.721Z,9.45
2023-10-23T03:31:04.680Z,8.35
2023-10-23T03:33:33.870Z,8.98
2023-10-23T03:36:02.266Z,8.35
2023-10-23T03:38:30.486Z,8.82
2023-10-23T03:41:01.604Z,8.93
2023-10-23T03:43:29.807Z,8.80
2023-10-23T03:45:58.191Z,11.25
2023-10-23T03:48:26.616Z,10.80
2023-10-23T03:51:01.260Z,11.98
2023-10-23T03:53:31.879Z,11.70
2023-10-23T03:56:01.595Z,12.20
2023-10-23T03:58:29.752Z,11.70
2023-10-23T04:00:57.997Z,10.85
2023-10-23T04:03:26.273Z,11.20
2023-10-23T04:05:54.385Z,11.60
2023-10-23T04:08:22.558Z,11.48
2023-10-23T04:10:51.374Z,10.90
2023-10-23T04:13:20.856Z,10.75
2023-10-23T04:15:56.070Z,10.70
2023-10-23T04:18:25.487Z,11.07
2023-10-23T04:21:04.741Z,10.68
2023-10-23T04:23:33.255Z,10.90
2023-10-23T04:26:04.177Z,9.82
2023-10-23T04:28:34.042Z,10.65
2023-10-23T04:31:02.375Z,10.07
2023-10-23T04:33:30.559Z,10.35
2023-10-23T04:35:59.743Z,9.60
2023-10-23T04:38:28.173Z,9.50
2023-10-23T04:40:56.436Z,9.98
2023-10-23T04:43:24.604Z,9.75
2023-10-23T04:45:54.933Z,9.50
2023-10-23T04:48:23.441Z,9.45
2023-10-23T04:50:51.557Z,9.00
2023-10-23T04:53:20.746Z,9.73
2023-10-23T04:55:48.879Z,9.02
2023-10-23T04:58:17.214Z,8.75
2023-10-23T05:00:45.715Z,9.30
2023-10-23T05:03:15.199Z,9.20
2023-10-23T05:05:48.207Z,9.85
2023-10-23T05:08:16.415Z,10.52
2023-10-23T05:10:44.624Z,10.52
2023-10-23T05:13:12.662Z,10.85
2023-10-23T05:15:40.849Z,10.27
2023-10-23T05:18:11.569Z,9.48
2023-10-23T05:20:41.134Z,9.55
2023-10-23T05:23:09.196Z,9.10
2023-10-23T05:25:38.207Z,9.73
2023-10-23T05:28:06.394Z,10.13
2023-10-23T05:30:34.728Z,9.75
2023-10-23T05:33:02.953Z,8.93
2023-10-23T05:35:31.397Z,8.52
2023-10-23T05:38:00.846Z,9.50
2023-10-23T05:40:28.947Z,9.77
2023-10-23T05:42:56.985Z,9.77
2023-10-23T05:45:25.298Z,9.57
2023-10-23T05:47:53.429Z,9.45
2023-10-23T05:50:21.525Z,9.73
2023-10-23T05:52:50.170Z,10.07
2023-10-23T05:55:19.909Z,9.98
2023-10-23T05:57:48.198Z,9.70
2023-10-23T06:00:17.051Z,9.27
2023-10-23T06:02:45.339Z,10.00
2023-10-23T06:05:13.437Z,10.40
2023-10-23T06:07:42.536Z,10.10
2023-10-23T06:10:11.205Z,10.90
2023-10-23T06:12:40.675Z,9.98
2023-10-23T06:15:11.352Z,11.10
2023-10-23T06:17:39.725Z,11.48
2023-10-23T06:20:09.362Z,10.52
2023-10-23T06:22:37.459Z,11.68
2023-10-23T06:25:06.092Z,12.27
2023-10-23T06:27:34.261Z,11.90
2023-10-23T06:30:04.298Z,11.35
2023-10-23T06:32:35.858Z,11.23
2023-10-23T06:35:05.298Z,11.75
2023-10-23T06:37:33.923Z,10.23
2023-10-23T06:40:02.058Z,10.93
2023-10-23T06:42:30.419Z,11.68
2023-10-23T06:45:00.265Z,12.32
2023-10-23T06:47:29.971Z,12.50
2023-10-23T06:49:58.317Z,10.50
2023-10-23T06:52:26.478Z,12.07
2023-10-23T06:54:54.514Z,12.57
2023-10-23T06:57:22.772Z,12.38
2023-10-23T06:59:51.589Z,11.27
2023-10-23T07:02:19.698Z,11.15
2023-10-23T07:04:50.268Z,12.27
2023-10-23T07:07:29.135Z,12.50
2023-10-23T07:10:00.832Z,11.13
2023-10-23T07:12:29.920Z,9.93
2023-10-23T07:14:58.251Z,9.98
2023-10-23T07:17:26.534Z,9.60
2023-10-23T07:19:56.096Z,9.70
2023-10-23T07:22:24.195Z,9.85
2023-10-23T07:24:52.319Z,12.05
2023-10-23T07:27:20.612Z,10.80
2023-10-23T07:29:48.960Z,9.77
2023-10-23T07:32:20.300Z,9.13
2023-10-23T07:34:48.518Z,9.75
2023-10-23T07:37:19.670Z,10.80
2023-10-23T07:39:49.095Z,11.15
2023-10-23T07:42:17.557Z,12.07
2023-10-23T07:44:45.896Z,12.77
2023-10-23T07:47:14.614Z,13.30
2023-10-23T07:49:42.818Z,13.25
2023-10-23T07:52:10.931Z,13.82
2023-10-23T07:54:40.532Z,14.80
2023-10-23T07:57:08.666Z,14.20
2023-10-23T07:59:36.917Z,14.40
2023-10-23T08:02:05.678Z,14.48
2023-10-23T08:04:34.384Z,14.63
2023-10-23T08:07:03.002Z,12.30
2023-10-23T08:09:38.082Z,13.80
2023-10-23T08:12:14.803Z,12.23
2023-10-23T08:14:44.080Z,13.68
2023-10-23T08:17:18.167Z,12.45
2023-10-23T08:19:53.294Z,12.60
2023-10-23T08:22:22.490Z,12.25
2023-10-23T08:24:51.014Z,11.55
2023-10-23T08:27:20.790Z,11.27
2023-10-23T08:29:48.833Z,9.88
2023-10-23T08:32:19.580Z,10.30
2023-10-23T08:34:48.113Z,9.95
2023-10-23T08:37:17.631Z,11.10
2023-10-23T08:39:45.829Z,11.02
2023-10-23T08:42:13.963Z,12.35
2023-10-23T08:44:44.781Z,11.55
2023-10-23T08:47:13.017Z,10.65
2023-10-23T08:49:41.318Z,10.75
2023-10-23T08:52:13.028Z,12.32
2023-10-23T08:54:44.879Z,11.23
2023-10-23T08:57:16.322Z,11.90
2023-10-23T08:59:45.922Z,12.23
2023-10-23T09:02:14.518Z,12.07
2023-10-23T09:04:47.173Z,12.25
2023-10-23T09:07:15.746Z,11.95
2023-10-23T09:09:43.903Z,12.90
2023-10-23T09:12:31.549Z,12.25
2023-10-23T09:15:14.475Z,12.13
2023-10-23T09:20:26.571Z,11.48
2023-10-23T09:22:57.481Z,13.15
2023-10-23T09:25:28.099Z,12.85
2023-10-23T09:27:56.238Z,13.40
2023-10-23T09:30:25.757Z,12.80
2023-10-23T09:32:55.147Z,12.35
2023-10-23T09:35:26.275Z,13.20
2023-10-23T09:37:54.471Z,11.98
2023-10-23T09:40:22.630Z,13.02
2023-10-23T09:42:50.860Z,11.75
2023-10-23T09:45:19.258Z,11.52
2023-10-23T09:47:51.551Z,11.52
2023-10-23T09:50:20.128Z,11.40
2023-10-23T09:52:50.147Z,11.15
2023-10-23T09:55:22.321Z,11.07
2023-10-23T09:57:55.024Z,10.25
2023-10-23T10:02:57.091Z,9.57
2023-10-23T10:05:31.552Z,9.18
2023-10-23T10:08:04.807Z,8.90
2023-10-23T10:10:34.128Z,8.88
2023-10-23T10:13:04.307Z,8.35
2023-10-23T10:15:33.559Z,7.85
2023-10-23T10:18:03.286Z,9.25
2023-10-23T10:20:32.082Z,9.38
2023-10-23T10:23:08.409Z,9.25
2023-10-23T10:25:38.806Z,10.75
2023-10-23T10:28:08.696Z,12.15
2023-10-23T10:30:43.233Z,11.05
2023-10-23T10:34:22.675Z,12.35
2023-10-23T10:36:07.843Z,12.10
2023-10-23T10:38:37.374Z,12.98
2023-10-23T10:41:16.950Z,13.15
2023-10-23T10:43:46.660Z,12.63
2023-10-23T10:46:19.120Z,13.88
2023-10-23T10:48:50.469Z,12.95
2023-10-23T10:51:20.025Z,12.60
2023-10-23T10:53:49.122Z,12.20
2023-10-23T10:56:19.810Z,13.02
2023-10-23T10:58:47.911Z,13.52
2023-10-23T11:01:16.067Z,12.95
2023-10-23T11:03:44.242Z,13.18
2023-10-23T11:06:13.996Z,14.13
2023-10-23T11:08:42.804Z,15.73
2023-10-23T11:11:11.201Z,15.77
2023-10-23T11:13:41.351Z,15.80
2023-10-23T11:16:13.370Z,17.20
2023-10-23T11:18:41.613Z,16.10
2023-10-23T11:21:14.109Z,15.00
2023-10-23T11:23:42.441Z,13.23
2023-10-23T11:26:10.481Z,12.93
2023-10-23T11:28:39.861Z,13.25
2023-10-23T11:31:07.969Z,11.93
2023-10-23T11:33:36.114Z,12.70
2023-10-23T11:36:07.634Z,11.38
2023-10-23T11:38:39.292Z,11.10
2023-10-23T11:41:07.464Z,9.18
2023-10-23T11:43:38.345Z,8.98
2023-10-23T11:46:08.511Z,8.80
2023-10-23T11:48:36.870Z,6.28
2023-10-23T11:51:06.405Z,5.68
2023-10-23T11:53:34.949Z,6.05
2023-10-23T11:56:05.777Z,5.45
2023-10-23T11:58:33.917Z,5.03
2023-10-23T12:01:03.535Z,5.13
2023-10-23T12:03:34.662Z,5.35
2023-10-23T12:06:04.653Z,4.78
2023-10-23T12:08:34.752Z,5.25
2023-10-23T12:11:04.509Z,4.82
2023-10-23T12:13:32.608Z,4.80
2023-10-23T12:16:00.755Z,4.55
2023-10-23T12:18:29.300Z,5.07
2023-10-23T12:20:59.431Z,5.43
2023-10-23T12:23:28.054Z,4.82
2023-10-23T12:25:56.493Z,4.75
2023-10-23T12:28:28.986Z,4.40
2023-10-23T12:31:00.070Z,4.80
2023-10-23T12:33:34.817Z,4.80
2023-10-23T12:36:07.006Z,4.40
2023-10-23T12:38:36.088Z,4.50
2023-10-23T12:41:04.363Z,5.03
2023-10-23T12:43:34.093Z,4.30
2023-10-23T12:46:02.825Z,4.63
2023-10-23T12:48:30.992Z,4.20
2023-10-23T12:50:59.195Z,4.97
2023-10-23T12:53:27.317Z,4.68
2023-10-23T12:55:55.394Z,4.88
2023-10-23T12:58:23.423Z,4.82
2023-10-23T13:00:54.128Z,4.85
2023-10-23T13:03:22.238Z,4.53
2023-10-23T13:05:51.769Z,4.32
2023-10-23T13:08:19.815Z,5.07
2023-10-23T13:10:49.166Z,5.03
2023-10-23T13:13:17.314Z,5.15
2023-10-23T13:15:45.474Z,5.68
2023-10-23T13:18:14.888Z,6.38
2023-10-23T13:21:29.493Z,5.88
2023-10-23T13:23:31.758Z,5.07
2023-10-23T13:26:12.549Z,5.85
2023-10-23T13:28:42.051Z,5.60
2023-10-23T13:31:10.189Z,5.75
2023-10-23T13:33:39.891Z,6.10
2023-10-23T13:36:09.135Z,5.85
2023-10-23T13:38:37.284Z,6.40
2023-10-23T13:41:08.322Z,5.90
2023-10-23T13:43:36.405Z,5.70
2023-10-23T13:46:04.933Z,6.82
2023-10-23T13:48:33.239Z,5.97
2023-10-23T13:51:05.869Z,5.93
2023-10-23T13:53:34.726Z,6.30
2023-10-23T13:56:02.973Z,5.70
2023-10-23T13:58:31.334Z,6.10
2023-10-23T14:01:00.289Z,6.22
2023-10-23T14:03:29.318Z,6.68
2023-10-23T14:05:58.207Z,6.68
2023-10-23T14:08:47.103Z,6.40
2023-10-23T14:11:57.145Z,6.88
2023-10-23T14:14:03.972Z,6.47
2023-10-23T14:16:32.165Z,7.18
2023-10-23T14:19:00.295Z,6.38
2023-10-23T14:21:28.513Z,6.50
2023-10-23T14:23:57.959Z,7.00
2023-10-23T14:26:26.693Z,5.95
2023-10-23T14:28:54.914Z,5.57
2023-10-23T14:31:23.035Z,5.35
2023-10-23T14:33:51.269Z,5.07
2023-10-23T14:36:19.382Z,5.45
2023-10-23T14:38:47.798Z,5.13
2023-10-23T14:41:17.220Z,5.22
2023-10-23T14:43:45.260Z,5.63
2023-10-23T14:46:15.991Z,5.18
2023-10-23T14:48:44.184Z,6.15
2023-10-23T14:51:12.285Z,6.40
2023-10-23T14:53:41.098Z,6.80
2023-10-23T14:56:12.749Z,6.22
2023-10-23T14:58:44.346Z,6.60
2023-10-23T15:01:13.567Z,5.93
2023-10-23T15:03:42.907Z,6.07
2023-10-23T15:06:11.759Z,6.38
2023-10-23T15:08:41.034Z,6.45
2023-10-23T15:11:13.950Z,6.82
2023-10-23T15:13:42.236Z,6.60
2023-10-23T15:16:11.926Z,6.80
2023-10-23T15:18:40.205Z,7.90
2023-10-23T15:21:08.793Z,7.93
2023-10-23T15:23:37.006Z,9.70
2023-10-23T15:26:06.060Z,9.43
2023-10-23T15:28:36.644Z,9.98
2023-10-23T15:31:07.345Z,9.82
2023-10-23T15:33:37.739Z,9.98
2023-10-23T15:36:07.521Z,10.25
2023-10-23T15:38:36.455Z,9.88
2023-10-23T15:41:07.017Z,11.13
2023-10-23T15:43:35.494Z,11.40
2023-10-23T15:46:04.418Z,11.50
2023-10-23T15:48:33.068Z,10.73
2023-10-23T15:51:02.708Z,11.13
2023-10-23T15:53:32.555Z,11.75
2023-10-23T15:56:04.129Z,11.80
2023-10-23T15:58:33.307Z,12.07
2023-10-23T16:01:03.521Z,12.00
2023-10-23T16:03:34.308Z,12.27
2023-10-23T16:06:05.379Z,11.60
2023-10-23T16:08:33.601Z,12.32
2023-10-23T16:11:02.522Z,12.70
2023-10-23T16:13:38.309Z,13.10
2023-10-23T16:16:16.038Z,12.70
2023-10-23T16:18:47.355Z,13.25
2023-10-23T16:21:17.920Z,13.18
2023-10-23T16:23:46.085Z,13.38
2023-10-23T16:26:14.306Z,13.13
2023-10-23T16:28:42.495Z,13.82
2023-10-23T16:31:15.382Z,14.45
2023-10-23T16:33:43.717Z,14.60
2023-10-23T16:36:11.829Z,13.70
2023-10-23T16:38:41.712Z,14.40
2023-10-23T16:41:09.767Z,13.73
2023-10-23T16:43:41.565Z,14.25
2023-10-23T16:46:12.197Z,14.10
2023-10-23T16:48:40.373Z,14.55
2023-10-23T16:51:08.391Z,14.93
2023-10-23T16:53:36.583Z,14.73
2023-10-23T16:56:06.638Z,16.17
2023-10-23T16:58:34.791Z,15.70
2023-10-23T17:01:07.325Z,16.23
2023-10-23T17:03:38.585Z,17.77
2023-10-23T17:06:07.694Z,17.83
2023-10-23T17:08:35.787Z,17.48
2023-10-23T17:11:09.742Z,17.52
2023-10-23T17:13:38.310Z,18.90
2023-10-23T17:16:13.349Z,16.92
2023-10-23T17:18:41.577Z,17.90
2023-10-23T17:21:09.651Z,17.80
2023-10-23T17:23:37.773Z,17.90
2023-10-23T17:26:05.964Z,20.05
2023-10-23T17:28:35.987Z,19.85
2023-10-23T17:31:04.690Z,19.58
2023-10-23T17:33:34.317Z,20.00
2023-10-23T17:36:02.593Z,20.55
2023-10-23T17:38:30.845Z,20.00
2023-10-23T17:40:59.878Z,18.38
2023-10-23T17:43:28.044Z,19.20
2023-10-23T17:46:01.880Z,19.15
2023-10-23T17:48:30.044Z,20.00
2023-10-23T17:51:02.573Z,20.13
2023-10-23T17:53:30.728Z,20.67
2023-10-23T17:55:58.980Z,21.60
2023-10-23T17:58:27.109Z,19.85
2023-10-23T18:00:55.408Z,21.20
2023-10-23T18:03:25.236Z,20.27
2023-10-23T18:05:59.739Z,21.80
2023-10-23T18:08:28.217Z,20.38
2023-10-23T18:10:56.566Z,19.83
2023-10-23T18:13:24.807Z,21.65
2023-10-23T18:15:55.192Z,21.52
2023-10-23T18:18:25.201Z,21.73
2023-10-23T18:20:55.129Z,21.48
2023-10-23T18:23:23.404Z,20.25
2023-10-23T18:25:51.584Z,19.83
2023-10-23T18:28:19.738Z,20.83
2023-10-23T18:30:48.583Z,20.38
2023-10-23T18:33:16.676Z,21.05
2023-10-23T18:35:46.406Z,19.90
2023-10-23T18:38:14.569Z,20.48
2023-10-23T18:40:42.941Z,20.27
2023-10-23T18:43:11.419Z,19.65
2023-10-23T18:45:44.114Z,20.85
2023-10-23T18:48:12.403Z,22.00
2023-10-23T18:50:41.023Z,19.25
2023-10-23T18:53:10.552Z,20.42
2023-10-23T18:55:38.780Z,20.70
2023-10-23T18:58:06.937Z,19.45
2023-10-23T19:00:35.044Z,19.80
2023-10-23T19:03:03.538Z,19.25
2023-10-23T19:05:36.767Z,19.45
2023-10-23T19:08:05.296Z,19.40
2023-10-23T19:10:39.979Z,19.85
2023-10-23T19:13:08.727Z,19.17
2023-10-23T19:15:36.958Z,19.35
2023-10-23T19:18:05.494Z,18.20
2023-10-23T19:20:33.668Z,18.73
2023-10-23T19:23:01.741Z,18.15
2023-10-23T19:25:29.844Z,18.40
2023-10-23T19:27:59.355Z,18.02
2023-10-23T19:30:27.521Z,17.60
2023-10-23T19:32:58.910Z,18.17
2023-10-23T19:35:27.518Z,19.13
2023-10-23T19:37:56.199Z,18.40
2023-10-23T19:40:25.399Z,16.48
2023-10-23T19:42:54.398Z,17.10
2023-10-23T19:45:24.805Z,16.73
2023-10-23T19:47:53.528Z,16.98
2023-10-23T19:50:24.834Z,16.50
2023-10-23T19:52:53.921Z,15.15
2023-10-23T19:55:45.173Z,15.40
2023-10-23T19:58:12.307Z,14.45
2023-10-23T20:00:41.854Z,13.85
2023-10-23T20:03:12.819Z,14.55
2023-10-23T20:05:43.958Z,14.98
2023-10-23T20:08:12.454Z,14.50
2023-10-23T20:10:40.735Z,13.35
2023-10-23T20:13:08.805Z,12.75
2023-10-23T20:15:37.722Z,13.27
2023-10-23T20:18:08.708Z,12.80
2023-10-23T20:20:37.054Z,13.32
2023-10-23T20:23:05.164Z,12.55
2023-10-23T20:25:33.668Z,12.48
2023-10-23T20:28:01.990Z,13.15
2023-10-23T20:30:33.589Z,13.40
2023-10-23T20:33:01.901Z,13.68
2023-10-23T20:35:31.424Z,12.63
2023-10-23T20:37:59.627Z,12.07
2023-10-23T20:40:27.844Z,12.48
2023-10-23T20:42:55.945Z,12.25
2023-10-23T20:45:24.058Z,11.38
2023-10-23T20:47:52.201Z,12.50
2023-10-23T20:50:20.960Z,10.70
2023-10-23T20:52:50.944Z,11.18
2023-10-23T20:55:19.165Z,10.65
2023-10-23T20:57:47.272Z,10.60
2023-10-23T21:00:15.972Z,10.02
2023-10-23T21:02:44.371Z,9.88
2023-10-23T21:05:12.632Z,9.73
2023-10-23T21:07:40.835Z,8.68
2023-10-23T21:10:11.014Z,7.97
2023-10-23T21:12:39.213Z,7.70
2023-10-23T21:15:08.352Z,7.97
2023-10-23T21:17:36.507Z,7.65
2023-10-23T21:20:05.296Z,7.45
2023-10-23T21:22:33.986Z,7.25
2023-10-23T21:25:05.826Z,7.43
2023-10-23T21:27:35.396Z,7.60
2023-10-23T21:30:05.620Z,7.55
2023-10-23T21:32:33.756Z,7.28
2023-10-23T21:35:02.043Z,7.35
2023-10-23T21:37:30.165Z,7.20
2023-10-23T21:39:58.308Z,7.22
2023-10-23T21:42:26.385Z,6.63
2023-10-23T21:44:57.977Z,7.47
2023-10-23T21:47:26.441Z,6.63
2023-10-23T21:49:54.724Z,6.80
2023-10-23T21:52:23.433Z,6.43
2023-10-23T21:54:52.027Z,6.20
2023-10-23T21:57:23.839Z,6.00
2023-10-23T21:59:52.676Z,5.90
2023-10-23T22:02:22.773Z,5.60
2023-10-23T22:04:51.464Z,5.88
2023-10-23T22:07:20.115Z,5.90
2023-10-23T22:09:49.011Z,6.72
2023-10-23T22:12:17.888Z,5.70
2023-10-23T22:14:46.838Z,5.65
2023-10-23T22:17:15.097Z,5.80
2023-10-23T22:19:47.831Z,5.93
2023-10-23T22:22:16.087Z,5.85
2023-10-23T22:24:43.221Z,5.70
2023-10-23T22:27:11.431Z,5.80
2023-10-23T22:29:39.782Z,5.80
2023-10-23T22:32:08.527Z,5.15
2023-10-23T22:34:36.631Z,4.93
2023-10-23T22:38:00.157Z,5.32
2023-10-23T22:39:54.940Z,5.50
2023-10-23T22:42:23.010Z,5.65
2023-10-23T22:44:51.262Z,5.50
2023-10-23T22:47:19.965Z,5.10
2023-10-23T22:49:51.800Z,5.15
2023-10-23T22:52:21.855Z,5.00
2023-10-23T22:54:55.451Z,4.55
2023-10-23T22:57:25.464Z,4.93
2023-10-23T22:59:54.107Z,5.38
2023-10-23T23:02:22.755Z,5.60
2023-10-23T23:04:54.355Z,5.95
2023-10-23T23:07:25.191Z,5.78
2023-10-23T23:09:53.812Z,5.45
2023-10-23T23:12:22.443Z,5.57
2023-10-23T23:14:51.100Z,5.47
2023-10-23T23:17:23.795Z,5.38
2023-10-23T23:22:20.814Z,4.80
2023-10-23T23:24:50.336Z,5.32
2023-10-23T23:27:18.418Z,5.47
2023-10-23T23:29:46.508Z,5.88
2023-10-23T23:32:14.701Z,5.60
2023-10-23T23:34:42.916Z,5.40
2023-10-23T23:37:11.579Z,5.78
2023-10-23T23:39:39.871Z,5.80
2023-10-23T23:42:12.385Z,5.70
2023-10-23T23:44:40.675Z,5.57
2023-10-23T23:47:09.034Z,5.10
2023-10-23T23:49:37.141Z,5.65
2023-10-23T23:52:05.673Z,5.82
2023-10-23T23:54:33.943Z,5.25
2023-10-23T23:57:02.051Z,5.38
2023-10-23T23:59:31.538Z,4.97
